createdAt,value
2018-07-14T00:01:04.083Z,15.80
2018-07-14T00:03:32.447Z,15.90
2018-07-14T00:06:00.730Z,15.90
2018-07-14T00:08:29.084Z,15.80
2018-07-14T00:10:57.609Z,15.80
2018-07-14T00:13:26.076Z,15.80
2018-07-14T00:15:54.451Z,15.80
2018-07-14T00:18:22.806Z,15.80
2018-07-14T00:23:19.287Z,15.80
2018-07-14T00:25:52.935Z,15.80
2018-07-14T00:28:21.282Z,15.80
2018-07-14T00:30:49.602Z,15.90
2018-07-14T00:33:17.954Z,16.00
2018-07-14T00:35:46.365Z,16.10
2018-07-14T00:38:14.817Z,16.10
2018-07-14T00:40:43.225Z,16.10
2018-07-14T00:43:11.607Z,16.10
2018-07-14T00:45:42.019Z,16.10
2018-07-14T00:48:10.426Z,16.10
2018-07-14T00:50:49.284Z,16.00
2018-07-14T00:53:17.600Z,16.00
2018-07-14T00:55:45.937Z,16.00
2018-07-14T00:58:14.227Z,16.00
2018-07-14T01:00:42.559Z,15.90
2018-07-14T01:03:10.842Z,15.90
2018-07-14T01:05:39.359Z,15.80
2018-07-14T01:08:07.795Z,15.80
2018-07-14T01:10:36.268Z,15.70
2018-07-14T01:13:04.738Z,15.70
2018-07-14T01:15:33.267Z,15.60
2018-07-14T01:18:01.736Z,15.60
2018-07-14T01:20:30.067Z,15.60
2018-07-14T01:22:58.391Z,15.50
2018-07-14T01:25:26.763Z,15.50
2018-07-14T01:27:55.152Z,15.60
2018-07-14T01:30:23.503Z,15.50
2018-07-14T01:32:51.854Z,15.50
2018-07-14T01:35:20.153Z,15.50
2018-07-14T01:37:48.469Z,15.50
2018-07-14T01:40:16.832Z,15.50
2018-07-14T01:42:45.219Z,15.50
2018-07-14T01:45:13.615Z,15.50
2018-07-14T01:47:41.918Z,15.50
2018-07-14T01:50:10.426Z,15.40
2018-07-14T01:52:38.725Z,15.50
2018-07-14T01:55:07.025Z,15.50
2018-07-14T01:57:35.398Z,15.50
2018-07-14T02:00:03.808Z,15.50
2018-07-14T02:02:32.189Z,15.60
2018-07-14T02:05:00.589Z,15.60
2018-07-14T02:07:28.969Z,15.60
2018-07-14T02:09:57.401Z,15.60
2018-07-14T02:12:25.871Z,15.50
2018-07-14T02:14:54.235Z,15.50
2018-07-14T02:17:23.087Z,15.40
2018-07-14T02:19:51.510Z,15.30
2018-07-14T02:22:19.867Z,15.20
2018-07-14T02:24:48.217Z,15.20
2018-07-14T02:27:16.503Z,15.10
2018-07-14T02:29:44.778Z,15.10
2018-07-14T02:32:14.209Z,15.10
2018-07-14T02:34:42.509Z,15.20
2018-07-14T02:37:10.811Z,15.20
2018-07-14T02:39:39.222Z,15.20
2018-07-14T02:42:07.604Z,15.20
2018-07-14T02:44:35.934Z,15.20
2018-07-14T02:47:04.426Z,15.30
2018-07-14T02:49:32.750Z,15.30
2018-07-14T02:52:01.106Z,15.20
2018-07-14T02:54:29.398Z,15.20
2018-07-14T02:56:57.818Z,15.20
2018-07-14T02:59:26.098Z,15.20
2018-07-14T03:01:54.423Z,15.20
2018-07-14T03:04:22.734Z,15.10
2018-07-14T03:06:51.005Z,15.10
2018-07-14T03:09:19.261Z,15.00
2018-07-14T03:11:47.861Z,14.90
2018-07-14T03:14:16.482Z,14.90
2018-07-14T03:16:44.782Z,14.90
2018-07-14T03:19:13.050Z,14.90
2018-07-14T03:21:41.363Z,14.90
2018-07-14T03:24:09.725Z,14.80
2018-07-14T03:26:38.047Z,14.80
2018-07-14T03:34:02.727Z,14.80
2018-07-14T03:36:31.095Z,14.80
2018-07-14T03:38:59.437Z,15.00
2018-07-14T03:41:27.798Z,15.10
2018-07-14T03:43:56.094Z,15.20
2018-07-14T03:46:24.545Z,15.30
2018-07-14T03:48:52.866Z,15.40
2018-07-14T03:51:21.157Z,15.60
2018-07-14T03:53:49.438Z,15.70
2018-07-14T03:56:17.820Z,15.90
2018-07-14T03:58:46.142Z,16.00
2018-07-14T04:01:14.446Z,16.10
2018-07-14T04:03:42.781Z,16.20
2018-07-14T04:06:11.105Z,16.30
2018-07-14T04:08:39.380Z,16.50
2018-07-14T04:11:07.796Z,16.60
2018-07-14T04:13:36.186Z,16.70
2018-07-14T04:16:05.262Z,16.80
2018-07-14T04:18:33.643Z,16.90
2018-07-14T04:21:01.970Z,17.00
2018-07-14T04:23:30.261Z,17.10
2018-07-14T04:25:58.574Z,17.20
2018-07-14T04:28:26.939Z,17.30
2018-07-14T04:30:55.278Z,17.40
2018-07-14T04:33:23.613Z,17.50
2018-07-14T04:35:51.896Z,17.50
2018-07-14T04:38:20.236Z,17.40
2018-07-14T04:40:48.562Z,17.20
2018-07-14T04:43:16.966Z,17.30
2018-07-14T04:45:45.518Z,17.50
2018-07-14T04:48:13.831Z,17.60
2018-07-14T04:50:42.190Z,17.80
2018-07-14T04:53:10.624Z,18.00
2018-07-14T04:55:38.969Z,18.20
2018-07-14T04:58:07.280Z,18.20
2018-07-14T05:03:03.695Z,18.00
2018-07-14T05:05:32.038Z,17.70
2018-07-14T05:08:00.342Z,17.70
2018-07-14T05:10:28.855Z,17.80
2018-07-14T05:12:57.210Z,17.80
2018-07-14T05:15:25.492Z,17.90
2018-07-14T05:17:53.940Z,17.90
2018-07-14T05:20:22.275Z,17.90
2018-07-14T05:22:50.735Z,17.90
2018-07-14T05:25:19.021Z,17.70
2018-07-14T05:27:47.390Z,17.60
2018-07-14T05:30:15.757Z,17.60
2018-07-14T05:32:44.247Z,17.90
2018-07-14T05:35:12.601Z,18.20
2018-07-14T05:37:40.966Z,18.30
2018-07-14T05:40:09.241Z,18.30
2018-07-14T05:42:37.541Z,18.30
2018-07-14T05:45:05.957Z,18.50
2018-07-14T05:47:35.379Z,18.90
2018-07-14T05:50:03.730Z,18.80
2018-07-14T05:52:32.154Z,18.90
2018-07-14T05:55:00.482Z,18.90
2018-07-14T05:57:28.904Z,18.70
2018-07-14T05:59:57.293Z,18.70
2018-07-14T06:02:25.683Z,18.70
2018-07-14T06:04:54.120Z,18.90
2018-07-14T06:07:22.476Z,18.90
2018-07-14T06:09:50.777Z,18.70
2018-07-14T06:12:19.100Z,18.70
2018-07-14T06:14:47.477Z,18.70
2018-07-14T06:17:15.919Z,18.70
2018-07-14T06:19:44.177Z,18.90
2018-07-14T06:22:12.465Z,19.20
2018-07-14T06:24:40.742Z,19.10
2018-07-14T06:27:09.082Z,19.10
2018-07-14T06:29:37.470Z,19.00
2018-07-14T06:32:05.966Z,18.90
2018-07-14T06:34:34.325Z,19.00
2018-07-14T06:37:02.611Z,19.30
2018-07-14T06:39:30.910Z,19.40
2018-07-14T06:41:59.215Z,19.50
2018-07-14T06:44:27.525Z,19.60
2018-07-14T06:46:56.657Z,19.80
2018-07-14T06:49:24.995Z,20.10
2018-07-14T06:51:53.354Z,20.30
2018-07-14T06:54:21.815Z,20.50
2018-07-14T06:56:50.271Z,20.60
2018-07-14T06:59:18.617Z,20.60
2018-07-14T07:01:46.980Z,20.50
2018-07-14T07:04:15.969Z,20.30
2018-07-14T07:06:44.329Z,20.50
2018-07-14T07:09:12.725Z,20.40
2018-07-14T07:11:41.141Z,20.10
2018-07-14T07:14:09.547Z,19.70
2018-07-14T07:16:37.917Z,19.70
2018-07-14T07:19:06.274Z,19.90
2018-07-14T07:21:34.633Z,20.10
2018-07-14T07:24:03.106Z,20.20
2018-07-14T07:26:31.424Z,20.30
2018-07-14T07:28:59.766Z,20.50
2018-07-14T07:31:28.076Z,22.00
2018-07-14T07:33:56.449Z,20.90
2018-07-14T07:36:24.715Z,21.10
2018-07-14T07:41:21.207Z,21.00
2018-07-14T07:43:49.565Z,21.30
2018-07-14T07:46:18.019Z,21.30
2018-07-14T07:48:46.503Z,21.20
2018-07-14T07:51:14.809Z,21.20
2018-07-14T07:53:43.158Z,21.10
2018-07-14T07:56:12.064Z,21.00
2018-07-14T07:58:40.404Z,21.20
2018-07-14T08:01:08.760Z,21.20
2018-07-14T08:03:37.175Z,21.60
2018-07-14T08:06:05.857Z,21.40
2018-07-14T08:08:34.509Z,21.30
2018-07-14T08:13:30.939Z,21.60
2018-07-14T08:15:59.377Z,21.80
2018-07-14T08:18:27.832Z,21.60
2018-07-14T08:20:56.214Z,21.60
2018-07-14T08:23:24.548Z,22.10
2018-07-14T08:25:52.930Z,22.00
2018-07-14T08:28:21.293Z,21.70
2018-07-14T08:30:49.634Z,21.80
2018-07-14T08:33:18.028Z,22.10
2018-07-14T08:35:46.403Z,22.10
2018-07-14T08:38:14.847Z,22.00
2018-07-14T08:43:11.270Z,22.50
2018-07-14T08:45:39.602Z,22.20
2018-07-14T08:48:07.946Z,22.20
2018-07-14T08:50:36.467Z,22.20
2018-07-14T08:53:04.848Z,22.60
2018-07-14T08:55:33.232Z,22.20
2018-07-14T09:00:29.714Z,22.30
2018-07-14T09:05:26.317Z,22.20
2018-07-14T09:07:54.678Z,22.40
2018-07-14T09:10:22.997Z,22.30
2018-07-14T09:12:51.334Z,22.30
2018-07-14T09:15:19.695Z,22.40
2018-07-14T09:17:48.030Z,22.40
2018-07-14T09:20:16.410Z,22.60
2018-07-14T09:22:44.758Z,22.80
2018-07-14T09:25:13.066Z,22.40
2018-07-14T09:27:41.498Z,22.40
2018-07-14T09:30:09.825Z,22.80
2018-07-14T09:32:38.160Z,23.00
2018-07-14T09:37:34.679Z,23.20
2018-07-14T09:40:03.006Z,23.20
2018-07-14T09:42:31.378Z,23.60
2018-07-14T09:44:59.846Z,23.80
2018-07-14T09:47:28.262Z,23.80
2018-07-14T09:49:56.601Z,23.60
2018-07-14T09:52:24.929Z,23.60
2018-07-14T09:54:53.373Z,23.70
2018-07-14T09:57:21.858Z,23.30
2018-07-14T10:02:18.263Z,23.30
2018-07-14T10:04:46.601Z,23.70
2018-07-14T10:09:43.092Z,24.40
2018-07-14T10:12:11.483Z,24.60
2018-07-14T10:14:39.823Z,24.90
2018-07-14T10:17:08.184Z,24.90
2018-07-14T10:19:36.633Z,24.60
2018-07-14T10:22:04.952Z,24.30
2018-07-14T10:24:33.379Z,24.40
2018-07-14T10:34:25.933Z,24.80
2018-07-14T10:36:55.331Z,24.70
2018-07-14T10:39:23.746Z,24.70
2018-07-14T10:41:52.242Z,24.70
2018-07-14T10:44:20.583Z,24.90
2018-07-14T10:46:49.081Z,24.80
2018-07-14T10:49:17.438Z,24.90
2018-07-14T10:51:45.787Z,24.90
2018-07-14T10:54:14.079Z,24.70
2018-07-14T10:59:10.701Z,25.20
2018-07-14T11:04:07.094Z,24.40
2018-07-14T11:06:35.447Z,24.00
2018-07-14T11:09:04.591Z,23.90
2018-07-14T11:16:29.227Z,23.90
2018-07-14T11:18:57.625Z,24.00
2018-07-14T11:21:26.006Z,24.20
2018-07-14T11:23:55.943Z,24.60
2018-07-14T11:26:24.385Z,24.60
2018-07-14T11:28:52.779Z,24.20
2018-07-14T11:31:21.165Z,24.10
2018-07-14T11:33:49.508Z,23.50
2018-07-14T11:36:17.769Z,23.80
2018-07-14T11:38:46.097Z,24.30
2018-07-14T11:41:14.402Z,24.00
2018-07-14T11:43:42.714Z,24.00
2018-07-14T11:46:11.005Z,24.50
2018-07-14T11:48:39.293Z,24.60
2018-07-14T11:51:07.710Z,24.40
2018-07-14T11:53:36.046Z,24.40
2018-07-14T11:56:04.455Z,24.40
2018-07-14T11:58:32.808Z,24.60
2018-07-14T12:01:01.132Z,24.60
2018-07-14T12:03:29.422Z,24.40
2018-07-14T12:10:53.922Z,24.90
2018-07-14T12:13:22.283Z,24.90
2018-07-14T12:15:50.698Z,25.20
2018-07-14T12:18:19.038Z,25.50
2018-07-14T12:20:47.411Z,25.50
2018-07-14T12:23:15.771Z,25.40
2018-07-14T12:25:44.097Z,25.50
2018-07-14T12:28:12.474Z,25.60
2018-07-14T12:30:40.941Z,25.60
2018-07-14T12:35:39.262Z,24.90
2018-07-14T12:38:07.702Z,24.90
2018-07-14T12:40:36.095Z,24.90
2018-07-14T12:45:32.568Z,24.90
2018-07-14T12:48:02.176Z,25.00
2018-07-14T12:50:30.522Z,25.20
2018-07-14T12:52:58.939Z,25.40
2018-07-14T12:55:27.274Z,25.40
2018-07-14T12:57:55.670Z,25.50
2018-07-14T13:00:23.938Z,25.60
2018-07-14T13:02:52.291Z,25.80
2018-07-14T13:05:20.579Z,25.80
2018-07-14T13:07:49.030Z,25.20
2018-07-14T13:10:24.542Z,24.80
2018-07-14T13:12:52.846Z,24.60
2018-07-14T13:15:21.162Z,24.50
2018-07-14T13:17:49.542Z,24.50
2018-07-14T13:20:17.820Z,23.90
2018-07-14T13:22:46.228Z,23.90
2018-07-14T13:27:44.679Z,23.90
2018-07-14T13:30:17.899Z,24.30
2018-07-14T13:35:14.230Z,24.70
2018-07-14T13:37:46.978Z,24.80
2018-07-14T13:40:15.353Z,25.00
2018-07-14T13:42:54.106Z,25.30
2018-07-14T13:45:24.956Z,24.70
2018-07-14T13:50:29.813Z,24.30
2018-07-14T13:52:58.620Z,24.40
2018-07-14T13:55:27.000Z,24.20
2018-07-14T13:57:55.996Z,24.40
2018-07-14T14:00:28.534Z,24.40
2018-07-14T14:02:56.870Z,24.40
2018-07-14T14:05:26.247Z,24.50
2018-07-14T14:07:54.555Z,24.70
2018-07-14T14:10:22.943Z,24.80
2018-07-14T14:15:19.630Z,25.20
2018-07-14T14:22:47.949Z,25.70
2018-07-14T14:40:09.590Z,25.00
2018-07-14T14:42:38.054Z,25.10
2018-07-14T14:45:06.652Z,25.10
2018-07-14T14:47:35.025Z,25.30
2018-07-14T14:50:04.466Z,25.50
2018-07-14T14:52:32.804Z,25.60
2018-07-14T14:55:01.099Z,25.60
2018-07-14T14:57:29.539Z,25.60
2018-07-14T14:59:57.896Z,25.40
2018-07-14T15:02:26.245Z,25.10
2018-07-14T15:04:54.567Z,25.00
2018-07-14T15:07:22.870Z,24.90
2018-07-14T15:09:51.170Z,24.80
2018-07-14T15:12:19.462Z,24.60
2018-07-14T15:14:47.813Z,24.40
2018-07-14T15:17:16.184Z,24.40
2018-07-14T15:19:44.479Z,24.10
2018-07-14T15:24:44.549Z,24.00
2018-07-14T15:27:13.703Z,23.80
2018-07-14T15:29:42.041Z,23.80
2018-07-14T15:37:06.646Z,23.70
2018-07-14T15:39:35.164Z,23.80
2018-07-14T15:44:31.652Z,23.90
2018-07-14T15:47:00.089Z,23.80
2018-07-14T15:51:56.547Z,24.00
2018-07-14T15:54:24.854Z,23.90
2018-07-14T15:59:21.395Z,24.20
2018-07-14T16:01:50.360Z,24.30
2018-07-14T16:04:18.773Z,24.00
2018-07-14T16:06:47.121Z,23.70
2018-07-14T16:09:15.422Z,23.50
2018-07-14T16:11:43.736Z,23.50
2018-07-14T16:14:12.716Z,23.60
2018-07-14T16:16:41.049Z,23.50
2018-07-14T16:19:09.456Z,23.50
2018-07-14T16:21:37.741Z,23.30
2018-07-14T16:24:06.136Z,23.20
2018-07-14T16:29:02.664Z,23.10
2018-07-14T16:31:31.069Z,23.10
2018-07-14T16:33:59.359Z,22.90
2018-07-14T16:36:27.764Z,22.80
2018-07-14T16:38:56.186Z,22.70
2018-07-14T16:41:24.515Z,22.70
2018-07-14T16:43:52.813Z,22.80
2018-07-14T16:48:49.862Z,22.70
2018-07-14T16:58:42.354Z,22.20
2018-07-14T17:01:10.649Z,22.40
2018-07-14T17:06:07.170Z,22.40
2018-07-14T17:11:03.646Z,21.90
2018-07-14T17:18:28.261Z,21.60
2018-07-14T17:25:53.790Z,21.20
2018-07-14T17:28:22.208Z,21.20
2018-07-14T18:13:45.687Z,21.00
2018-07-14T18:16:14.050Z,20.90
2018-07-14T18:18:42.346Z,20.50
2018-07-14T18:21:10.670Z,20.30
2018-07-14T18:38:29.629Z,19.10
2018-07-14T18:40:58.072Z,18.90
2018-07-14T18:43:26.372Z,18.90
2018-07-14T18:45:54.711Z,18.70
2018-07-14T18:50:51.119Z,18.40
2018-07-14T19:00:50.832Z,18.00
2018-07-14T19:03:19.123Z,17.90
2018-07-14T19:10:43.643Z,17.60
2018-07-14T19:23:04.551Z,16.90
2018-07-14T19:25:32.967Z,16.80
2018-07-14T19:28:01.302Z,16.70
2018-07-14T19:35:26.068Z,16.50
2018-07-14T19:37:54.491Z,16.50
2018-07-14T19:40:22.980Z,16.40
2018-07-14T19:50:15.861Z,15.90
2018-07-14T19:57:40.595Z,15.80
2018-07-14T20:02:37.126Z,15.60
2018-07-14T20:12:30.001Z,15.30
2018-07-14T20:24:51.593Z,15.10
2018-07-14T20:27:20.142Z,15.10
2018-07-14T20:34:44.939Z,14.90
2018-07-14T20:37:13.440Z,14.90
2018-07-14T20:39:42.226Z,15.00
2018-07-14T20:52:03.831Z,14.80
2018-07-14T20:57:00.586Z,14.50
2018-07-14T21:01:57.224Z,14.40
2018-07-14T21:04:25.709Z,14.30
2018-07-14T21:06:54.208Z,14.30
2018-07-14T21:09:22.698Z,14.20
2018-07-14T21:11:51.674Z,14.10
2018-07-14T21:21:44.832Z,14.00
2018-07-14T21:24:16.311Z,13.90
2018-07-14T21:26:44.983Z,13.90
2018-07-14T21:29:13.455Z,13.80
2018-07-14T21:36:53.732Z,13.70
2018-07-14T21:39:22.047Z,13.60
2018-07-14T21:44:22.384Z,13.50
2018-07-14T21:46:50.975Z,13.40
2018-07-14T21:51:47.564Z,13.30
2018-07-14T21:54:17.058Z,13.20
2018-07-14T21:56:45.483Z,13.10
2018-07-14T21:59:13.898Z,13.10
2018-07-14T22:01:47.919Z,13.00
2018-07-14T22:04:16.595Z,12.90
2018-07-14T22:06:45.472Z,12.90
2018-07-14T22:09:13.919Z,12.80
2018-07-14T22:11:42.451Z,12.80
2018-07-14T22:24:05.846Z,12.60
2018-07-14T22:26:34.286Z,12.50
2018-07-14T22:29:02.832Z,12.40
2018-07-14T22:33:59.340Z,12.40
2018-07-14T22:36:27.818Z,12.40
2018-07-14T22:38:56.481Z,12.40
2018-07-14T22:41:25.192Z,12.30
